• Join FlightAware (Why Join?)
  • Login
  • US Flag 
06:18AM EDT


 

Airport Tracker/Info


-or-


 

Live Flight TrackerFlight Track Log ✈ SWD90 ✈ 05-Sep-2013 ✈ KSTP - KABR

Flight Track Log - Related Links

Times and Time Zones

All times are in EDT time to prevent confusion due to time zone crossing. See the SWD90 flight status page for this flight to view local times or setup timezone preferences in your user account.

Time Position Orientation Groundspeed Altitude Reporting Facility
EDT Latitude Longitude Course Direction KTS MPH feet Rate Location/Type
08:44AM 44.9333 -93.0000 278° West 168 193 2,200  Level Minneapolis TRACON
08:45AM 44.9667 -93.0000 360° North 156 180 3,900 1,500 Climbing Minneapolis TRACON
08:46AM 45.0167 -92.9833 13° North 160 184 5,100 1,140 Climbing Minneapolis TRACON
08:47AM 45.0500 -93.0333 313° West 164 189 6,400 1,200 Climbing Minneapolis TRACON
08:48AM 45.0500 -93.0833 270° West 159 183 7,600 1,080 Climbing Minneapolis TRACON
08:49AM 45.0625 -93.1067 307° West 160 184 8,000 1,080 Climbing Minneapolis Center
08:50AM 44.9315 -93.4983 278° West  Level FlightAware Approximate
08:50AM 45.0767 -93.1658 289° West 160 184 9,300  Level Minneapolis Center
08:51AM 45.0811 -93.2397 275° West 160 184 10,900 1,200 Climbing Minneapolis Center
08:52AM 45.0783 -93.3061 267° West 170 196 11,800 480 Climbing Minneapolis Center
08:53AM 45.0781 -93.3858 270° West 203 234 11,900 60 Climbing Minneapolis Center
08:54AM 45.0836 -93.4719 275° West 219 252 12,000  Climbing Minneapolis Center
08:55AM 45.0867 -93.5600 273° West 225 259 12,000 840 Level Minneapolis Center
08:56AM 45.0856 -93.6689 269° West 190 219 14,000 1,500 Climbing Minneapolis Center
08:57AM 45.0844 -93.7381 269° West 178 205 15,100 960 Climbing Minneapolis Center
08:58AM 45.0833 -93.8111 269° West 186 214 16,100 960 Climbing Minneapolis Center
08:59AM 45.0864 -93.8814 274° West 181 208 17,200 780 Climbing Minneapolis Center
09:00AM 45.0878 -93.9492 272° West 174 200 17,800 420 Climbing Minneapolis Center
09:01AM 45.0839 -94.0408 267° West 196 226 18,100 60 Climbing Minneapolis Center
09:02AM 45.0861 -94.1292 272° West 222 255 18,000 -60 Descending Minneapolis Center
09:03AM 45.0911 -94.2186 275° West 228 262 18,000  Level Minneapolis Center
09:04AM 45.0917 -94.3097 271° West 231 266 18,000  Level Minneapolis Center
09:06AM 45.0897 -94.4003 268° West 232 267 18,000  Level Minneapolis Center
09:07AM 45.0914 -94.4903 272° West 230 265 18,000  Level Minneapolis Center
09:08AM 45.1033 -94.5789 281° West 230 265 18,000  Level Minneapolis Center
09:09AM 45.1139 -94.6736 279° West 227 261 18,000  Level Minneapolis Center
09:10AM 45.1231 -94.7625 278° West 228 262 18,000  Level Minneapolis Center
09:11AM 45.1317 -94.8511 278° West 229 264 18,000  Level Minneapolis Center
09:12AM 45.1442 -94.9600 279° West 232 267 18,000  Level Minneapolis Center
09:13AM 45.1528 -95.0489 278° West 231 266 18,000  Level Minneapolis Center
09:14AM 45.1631 -95.1392 279° West 233 268 18,000  Level Minneapolis Center
09:15AM 45.1711 -95.2281 277° West 231 266 18,000  Level Minneapolis Center
09:16AM 45.1808 -95.3189 279° West 233 268 18,000  Level Minneapolis Center
09:17AM 45.1894 -95.4069 278° West 229 264 18,000  Level Minneapolis Center
09:18AM 45.2000 -95.5158 278° West 232 267 18,000  Level Minneapolis Center
09:19AM 45.2097 -95.6028 279° West 228 262 18,000  Level Minneapolis Center
09:20AM 45.2172 -95.6908 277° West 226 260 18,000  Level Minneapolis Center
09:21AM 45.2256 -95.7792 278° West 227 261 18,000  Level Minneapolis Center
09:22AM 45.2344 -95.8669 278° West 226 260 18,000  Level Minneapolis Center
09:23AM 45.2408 -95.9378 277° West 226 260 18,000  Level Minneapolis Center
09:24AM 45.2536 -96.0633 278° West 231 266 18,000  Level Minneapolis Center
09:25AM 45.2603 -96.1336 278° West 228 262 18,000 -240 Level Minneapolis Center
09:26AM 45.2678 -96.2242 277° West 229 264 17,600 -540 Descending Minneapolis Center
09:27AM 45.2800 -96.3414 278° West 247 284 17,000 -480 Descending Minneapolis Center
09:28AM 45.2894 -96.4353 278° West 245 282 16,700 -360 Descending Minneapolis Center
09:29AM 45.2978 -96.5300 277° West 243 280 16,300 -360 Descending Minneapolis Center
09:30AM 45.3053 -96.6225 277° West 239 275 16,000 -180 Descending Minneapolis Center
09:31AM 45.3158 -96.7339 278° West 239 275 16,000  Level Minneapolis Center
09:32AM 45.3250 -96.8444 277° West 236 272 16,000 -420 Level Minneapolis Center
09:34AM 45.3322 -96.9400 276° West 243 280 15,200 -720 Descending Minneapolis Center
09:35AM 45.3417 -97.0400 278° West 252 290 14,400 -900 Descending Minneapolis Center
09:36AM 45.3539 -97.1603 278° West 256 295 13,200 -1,080 Descending Minneapolis Center
09:37AM 45.3611 -97.2614 276° West 258 297 12,300 -1,020 Descending Minneapolis Center
09:38AM 45.3703 -97.3836 276° West 260 299 11,200 -1,080 Descending Minneapolis Center
09:39AM 45.3808 -97.4861 278° West 264 304 10,100 -1,020 Descending Minneapolis Center
09:40AM 45.3881 -97.5908 276° West 265 305 9,200 -840 Descending Minneapolis Center
09:41AM 45.3942 -97.6939 275° West 264 304 8,400 -840 Descending Minneapolis Center
09:42AM 45.4042 -97.7872 279° West 253 291 7,500 -780 Descending Minneapolis Center
09:43AM 45.4125 -97.8853 277° West 251 289 6,700 -840 Descending Minneapolis Center
09:44AM 45.4219 -98.0000 277° West 246 283 5,600 -1,080 Descending Minneapolis Center
09:45AM 45.4281 -98.1053 275° West 246 283 4,500 -720 Descending Minneapolis Center
09:46AM 45.4267 -98.2164 269° West 245 282 4,200 -300 Descending Minneapolis Center
09:48AM 45.4333 -98.3224 270° West  Level FlightAware Approximate
09:55AM 45.4333 -98.4167 270° West  Level FlightAware Approximate